sensor_id;sensor_type;location;lat;lon;timestamp;P1;durP1;ratioP1;P2;durP2;ratioP2
55800;SDS011;41730;51.960;20.158;2023-07-22T00:00:33;7.50;;;6.60;;
55800;SDS011;41730;51.960;20.158;2023-07-22T00:03:03;7.40;;;6.70;;
55800;SDS011;41730;51.960;20.158;2023-07-22T00:05:33;10.40;;;7.00;;
55800;SDS011;41730;51.960;20.158;2023-07-22T00:08:04;7.60;;;6.80;;
55800;SDS011;41730;51.960;20.158;2023-07-22T00:10:33;8.70;;;6.50;;
55800;SDS011;41730;51.960;20.158;2023-07-22T00:13:02;7.30;;;6.40;;
55800;SDS011;41730;51.960;20.158;2023-07-22T00:15:31;7.00;;;6.30;;
55800;SDS011;41730;51.960;20.158;2023-07-22T00:18:00;6.90;;;6.00;;
55800;SDS011;41730;51.960;20.158;2023-07-22T00:20:30;7.30;;;6.40;;
55800;SDS011;41730;51.960;20.158;2023-07-22T00:23:00;9.60;;;7.00;;
55800;SDS011;41730;51.960;20.158;2023-07-22T00:25:30;8.70;;;7.20;;
55800;SDS011;41730;51.960;20.158;2023-07-22T00:27:59;9.10;;;6.50;;
55800;SDS011;41730;51.960;20.158;2023-07-22T00:30:33;7.30;;;6.50;;
55800;SDS011;41730;51.960;20.158;2023-07-22T00:33:02;8.70;;;6.90;;
55800;SDS011;41730;51.960;20.158;2023-07-22T00:35:32;8.00;;;6.90;;
55800;SDS011;41730;51.960;20.158;2023-07-22T00:38:02;9.20;;;6.90;;
55800;SDS011;41730;51.960;20.158;2023-07-22T00:40:32;10.40;;;7.40;;
55800;SDS011;41730;51.960;20.158;2023-07-22T00:43:02;9.20;;;8.30;;
55800;SDS011;41730;51.960;20.158;2023-07-22T00:45:34;7.10;;;6.40;;
55800;SDS011;41730;51.960;20.158;2023-07-22T00:48:05;7.60;;;6.80;;
55800;SDS011;41730;51.960;20.158;2023-07-22T00:50:37;8.80;;;7.10;;
55800;SDS011;41730;51.960;20.158;2023-07-22T00:53:08;7.90;;;6.70;;
55800;SDS011;41730;51.960;20.158;2023-07-22T00:55:38;8.50;;;7.40;;
55800;SDS011;41730;51.960;20.158;2023-07-22T00:58:08;9.90;;;7.20;;
55800;SDS011;41730;51.960;20.158;2023-07-22T01:00:38;7.70;;;6.90;;
55800;SDS011;41730;51.960;20.158;2023-07-22T01:03:08;8.50;;;7.50;;
55800;SDS011;41730;51.960;20.158;2023-07-22T01:05:37;10.10;;;7.40;;
55800;SDS011;41730;51.960;20.158;2023-07-22T01:08:08;9.00;;;7.40;;
55800;SDS011;41730;51.960;20.158;2023-07-22T01:10:37;9.10;;;8.20;;
55800;SDS011;41730;51.960;20.158;2023-07-22T01:13:06;8.00;;;7.20;;
55800;SDS011;41730;51.960;20.158;2023-07-22T01:15:36;8.70;;;7.40;;
55800;SDS011;41730;51.960;20.158;2023-07-22T01:18:06;8.50;;;7.10;;
55800;SDS011;41730;51.960;20.158;2023-07-22T01:20:35;8.00;;;7.20;;
55800;SDS011;41730;51.960;20.158;2023-07-22T01:23:05;7.90;;;7.10;;
55800;SDS011;41730;51.960;20.158;2023-07-22T01:25:34;8.30;;;6.90;;
55800;SDS011;41730;51.960;20.158;2023-07-22T01:28:09;8.10;;;7.30;;
55800;SDS011;41730;51.960;20.158;2023-07-22T01:30:38;9.10;;;7.20;;
55800;SDS011;41730;51.960;20.158;2023-07-22T01:33:07;10.50;;;7.90;;
55800;SDS011;41730;51.960;20.158;2023-07-22T01:35:40;9.10;;;8.00;;
55800;SDS011;41730;51.960;20.158;2023-07-22T01:38:09;11.50;;;8.00;;
55800;SDS011;41730;51.960;20.158;2023-07-22T01:40:39;9.50;;;7.80;;
55800;SDS011;41730;51.960;20.158;2023-07-22T01:43:08;8.60;;;7.50;;
55800;SDS011;41730;51.960;20.158;2023-07-22T01:45:38;8.90;;;7.20;;
55800;SDS011;41730;51.960;20.158;2023-07-22T01:48:07;8.90;;;7.90;;
55800;SDS011;41730;51.960;20.158;2023-07-22T01:50:36;9.20;;;8.30;;
55800;SDS011;41730;51.960;20.158;2023-07-22T01:53:06;8.90;;;7.70;;
55800;SDS011;41730;51.960;20.158;2023-07-22T01:55:35;9.00;;;7.80;;
55800;SDS011;41730;51.960;20.158;2023-07-22T01:58:05;8.90;;;7.90;;
55800;SDS011;41730;51.960;20.158;2023-07-22T02:00:37;11.10;;;7.70;;
55800;SDS011;41730;51.960;20.158;2023-07-22T02:03:06;8.40;;;7.30;;
55800;SDS011;41730;51.960;20.158;2023-07-22T02:05:35;9.60;;;8.20;;
55800;SDS011;41730;51.960;20.158;2023-07-22T02:08:05;9.10;;;8.20;;
55800;SDS011;41730;51.960;20.158;2023-07-22T02:10:34;9.40;;;8.50;;
55800;SDS011;41730;51.960;20.158;2023-07-22T02:13:03;10.60;;;8.60;;
55800;SDS011;41730;51.960;20.158;2023-07-22T02:15:32;11.10;;;8.30;;
55800;SDS011;41730;51.960;20.158;2023-07-22T02:18:02;9.00;;;8.00;;
55800;SDS011;41730;51.960;20.158;2023-07-22T02:20:32;9.10;;;7.80;;
55800;SDS011;41730;51.960;20.158;2023-07-22T02:23:02;8.80;;;7.50;;
55800;SDS011;41730;51.960;20.158;2023-07-22T02:25:31;8.00;;;7.10;;
55800;SDS011;41730;51.960;20.158;2023-07-22T02:28:00;8.60;;;7.70;;
55800;SDS011;41730;51.960;20.158;2023-07-22T02:30:34;8.70;;;7.70;;
55800;SDS011;41730;51.960;20.158;2023-07-22T02:33:05;9.30;;;7.80;;
55800;SDS011;41730;51.960;20.158;2023-07-22T02:35:34;8.90;;;8.00;;
55800;SDS011;41730;51.960;20.158;2023-07-22T02:38:03;10.30;;;8.20;;
55800;SDS011;41730;51.960;20.158;2023-07-22T02:43:03;10.50;;;8.30;;
55800;SDS011;41730;51.960;20.158;2023-07-22T02:45:34;9.10;;;7.70;;
55800;SDS011;41730;51.960;20.158;2023-07-22T02:48:05;9.40;;;8.30;;
55800;SDS011;41730;51.960;20.158;2023-07-22T02:50:35;11.50;;;8.80;;
55800;SDS011;41730;51.960;20.158;2023-07-22T02:53:05;10.00;;;9.00;;
55800;SDS011;41730;51.960;20.158;2023-07-22T02:55:34;9.60;;;8.60;;
55800;SDS011;41730;51.960;20.158;2023-07-22T02:58:05;9.80;;;8.10;;
55800;SDS011;41730;51.960;20.158;2023-07-22T03:00:34;10.20;;;8.50;;
55800;SDS011;41730;51.960;20.158;2023-07-22T03:03:04;10.70;;;8.50;;
55800;SDS011;41730;51.960;20.158;2023-07-22T03:05:33;10.90;;;8.90;;
55800;SDS011;41730;51.960;20.158;2023-07-22T03:08:04;8.90;;;8.00;;
55800;SDS011;41730;51.960;20.158;2023-07-22T03:10:34;9.90;;;8.60;;
55800;SDS011;41730;51.960;20.158;2023-07-22T03:13:04;10.20;;;9.10;;
55800;SDS011;41730;51.960;20.158;2023-07-22T03:15:34;10.50;;;9.40;;
55800;SDS011;41730;51.960;20.158;2023-07-22T03:18:03;14.10;;;9.30;;
55800;SDS011;41730;51.960;20.158;2023-07-22T03:20:34;9.90;;;8.40;;
55800;SDS011;41730;51.960;20.158;2023-07-22T03:23:05;9.80;;;8.80;;
55800;SDS011;41730;51.960;20.158;2023-07-22T03:25:38;11.20;;;8.30;;
55800;SDS011;41730;51.960;20.158;2023-07-22T03:28:23;8.90;;;7.90;;
55800;SDS011;41730;51.960;20.158;2023-07-22T03:31:38;9.30;;;7.20;;
55800;SDS011;41730;51.960;20.158;2023-07-22T03:34:33;9.20;;;7.10;;
55800;SDS011;41730;51.960;20.158;2023-07-22T03:37:20;9.30;;;7.00;;
55800;SDS011;41730;51.960;20.158;2023-07-22T03:40:16;8.70;;;7.40;;
55800;SDS011;41730;51.960;20.158;2023-07-22T03:43:01;7.10;;;6.40;;
55800;SDS011;41730;51.960;20.158;2023-07-22T03:45:30;8.40;;;6.60;;
55800;SDS011;41730;51.960;20.158;2023-07-22T03:48:01;7.30;;;6.40;;
55800;SDS011;41730;51.960;20.158;2023-07-22T03:50:31;7.80;;;6.60;;
55800;SDS011;41730;51.960;20.158;2023-07-22T03:53:00;7.90;;;6.20;;
55800;SDS011;41730;51.960;20.158;2023-07-22T03:55:29;7.40;;;6.70;;
55800;SDS011;41730;51.960;20.158;2023-07-22T03:57:58;8.80;;;6.40;;
55800;SDS011;41730;51.960;20.158;2023-07-22T04:00:27;6.90;;;6.10;;
55800;SDS011;41730;51.960;20.158;2023-07-22T04:02:57;7.60;;;6.40;;
55800;SDS011;41730;51.960;20.158;2023-07-22T04:05:26;6.80;;;5.90;;
55800;SDS011;41730;51.960;20.158;2023-07-22T04:07:55;7.90;;;6.70;;
55800;SDS011;41730;51.960;20.158;2023-07-22T04:10:25;6.60;;;5.60;;
55800;SDS011;41730;51.960;20.158;2023-07-22T04:12:55;6.50;;;5.80;;
55800;SDS011;41730;51.960;20.158;2023-07-22T04:15:24;6.70;;;5.70;;
55800;SDS011;41730;51.960;20.158;2023-07-22T04:17:53;6.90;;;5.90;;
55800;SDS011;41730;51.960;20.158;2023-07-22T04:20:22;6.90;;;5.90;;
55800;SDS011;41730;51.960;20.158;2023-07-22T04:22:51;7.80;;;6.00;;
55800;SDS011;41730;51.960;20.158;2023-07-22T04:25:20;6.40;;;5.70;;
55800;SDS011;41730;51.960;20.158;2023-07-22T04:27:50;6.20;;;5.20;;
55800;SDS011;41730;51.960;20.158;2023-07-22T04:30:23;6.00;;;5.20;;
55800;SDS011;41730;51.960;20.158;2023-07-22T04:32:52;6.60;;;5.30;;
55800;SDS011;41730;51.960;20.158;2023-07-22T04:35:22;7.30;;;5.60;;
55800;SDS011;41730;51.960;20.158;2023-07-22T04:37:51;7.60;;;5.60;;
55800;SDS011;41730;51.960;20.158;2023-07-22T04:40:21;9.50;;;5.30;;
55800;SDS011;41730;51.960;20.158;2023-07-22T04:42:52;6.70;;;5.20;;
55800;SDS011;41730;51.960;20.158;2023-07-22T04:45:21;6.60;;;5.10;;
55800;SDS011;41730;51.960;20.158;2023-07-22T04:47:51;6.20;;;4.60;;
55800;SDS011;41730;51.960;20.158;2023-07-22T04:50:23;7.00;;;4.10;;
55800;SDS011;41730;51.960;20.158;2023-07-22T04:52:56;6.20;;;3.90;;
55800;SDS011;41730;51.960;20.158;2023-07-22T04:55:25;4.50;;;4.00;;
55800;SDS011;41730;51.960;20.158;2023-07-22T04:57:58;6.40;;;3.90;;
55800;SDS011;41730;51.960;20.158;2023-07-22T05:00:30;6.30;;;3.80;;
55800;SDS011;41730;51.960;20.158;2023-07-22T05:03:01;4.60;;;3.80;;
55800;SDS011;41730;51.960;20.158;2023-07-22T05:05:31;4.00;;;3.20;;
55800;SDS011;41730;51.960;20.158;2023-07-22T05:08:00;5.70;;;3.50;;
55800;SDS011;41730;51.960;20.158;2023-07-22T05:10:31;6.50;;;3.00;;
55800;SDS011;41730;51.960;20.158;2023-07-22T05:13:01;4.30;;;3.30;;
55800;SDS011;41730;51.960;20.158;2023-07-22T05:15:33;4.00;;;3.00;;
55800;SDS011;41730;51.960;20.158;2023-07-22T05:18:05;3.80;;;3.00;;
55800;SDS011;41730;51.960;20.158;2023-07-22T05:20:34;5.20;;;3.00;;
55800;SDS011;41730;51.960;20.158;2023-07-22T05:23:05;3.90;;;2.80;;
55800;SDS011;41730;51.960;20.158;2023-07-22T05:25:35;3.40;;;3.10;;
55800;SDS011;41730;51.960;20.158;2023-07-22T05:28:06;5.30;;;3.50;;
55800;SDS011;41730;51.960;20.158;2023-07-22T05:30:35;4.50;;;3.10;;
55800;SDS011;41730;51.960;20.158;2023-07-22T05:33:05;4.40;;;2.90;;
55800;SDS011;41730;51.960;20.158;2023-07-22T05:35:34;4.30;;;3.40;;
55800;SDS011;41730;51.960;20.158;2023-07-22T05:38:04;4.90;;;3.50;;
55800;SDS011;41730;51.960;20.158;2023-07-22T05:40:33;5.60;;;3.90;;
55800;SDS011;41730;51.960;20.158;2023-07-22T05:43:03;5.20;;;3.50;;
55800;SDS011;41730;51.960;20.158;2023-07-22T05:45:33;3.80;;;2.70;;
55800;SDS011;41730;51.960;20.158;2023-07-22T05:48:03;4.90;;;3.30;;
55800;SDS011;41730;51.960;20.158;2023-07-22T05:50:33;5.00;;;2.90;;
55800;SDS011;41730;51.960;20.158;2023-07-22T05:53:03;5.10;;;2.80;;
55800;SDS011;41730;51.960;20.158;2023-07-22T05:55:33;4.60;;;2.80;;
55800;SDS011;41730;51.960;20.158;2023-07-22T05:58:03;5.80;;;3.10;;
55800;SDS011;41730;51.960;20.158;2023-07-22T06:00:33;3.80;;;2.50;;
55800;SDS011;41730;51.960;20.158;2023-07-22T06:03:07;4.70;;;2.60;;
55800;SDS011;41730;51.960;20.158;2023-07-22T06:08:08;3.90;;;2.50;;
55800;SDS011;41730;51.960;20.158;2023-07-22T06:10:39;4.60;;;2.60;;
55800;SDS011;41730;51.960;20.158;2023-07-22T06:13:09;4.00;;;2.50;;
55800;SDS011;41730;51.960;20.158;2023-07-22T06:15:38;4.00;;;2.30;;
55800;SDS011;41730;51.960;20.158;2023-07-22T06:18:11;6.50;;;3.20;;
55800;SDS011;41730;51.960;20.158;2023-07-22T06:20:48;4.00;;;2.40;;
55800;SDS011;41730;51.960;20.158;2023-07-22T06:23:32;4.10;;;2.40;;
55800;SDS011;41730;51.960;20.158;2023-07-22T06:26:11;3.00;;;2.20;;
55800;SDS011;41730;51.960;20.158;2023-07-22T06:28:41;3.90;;;2.20;;
55800;SDS011;41730;51.960;20.158;2023-07-22T06:31:12;3.10;;;2.00;;
55800;SDS011;41730;51.960;20.158;2023-07-22T06:33:43;3.10;;;2.10;;
55800;SDS011;41730;51.960;20.158;2023-07-22T06:36:12;3.00;;;2.40;;
55800;SDS011;41730;51.960;20.158;2023-07-22T06:38:41;3.30;;;1.90;;
55800;SDS011;41730;51.960;20.158;2023-07-22T06:41:10;3.30;;;2.10;;
55800;SDS011;41730;51.960;20.158;2023-07-22T06:43:40;2.80;;;1.90;;
55800;SDS011;41730;51.960;20.158;2023-07-22T06:46:09;3.00;;;1.70;;
55800;SDS011;41730;51.960;20.158;2023-07-22T06:48:39;4.60;;;2.10;;
55800;SDS011;41730;51.960;20.158;2023-07-22T06:51:09;4.70;;;1.90;;
55800;SDS011;41730;51.960;20.158;2023-07-22T06:53:38;3.70;;;2.10;;
55800;SDS011;41730;51.960;20.158;2023-07-22T06:56:07;3.00;;;2.00;;
55800;SDS011;41730;51.960;20.158;2023-07-22T06:58:37;2.90;;;1.90;;
55800;SDS011;41730;51.960;20.158;2023-07-22T07:01:06;5.40;;;2.30;;
55800;SDS011;41730;51.960;20.158;2023-07-22T07:03:36;3.80;;;2.30;;
55800;SDS011;41730;51.960;20.158;2023-07-22T07:06:05;3.10;;;2.00;;
55800;SDS011;41730;51.960;20.158;2023-07-22T07:08:34;3.10;;;1.90;;
55800;SDS011;41730;51.960;20.158;2023-07-22T07:11:04;4.50;;;2.00;;
55800;SDS011;41730;51.960;20.158;2023-07-22T07:13:34;3.20;;;1.80;;
55800;SDS011;41730;51.960;20.158;2023-07-22T07:18:50;3.30;;;2.00;;
55800;SDS011;41730;51.960;20.158;2023-07-22T07:21:19;5.80;;;1.90;;
55800;SDS011;41730;51.960;20.158;2023-07-22T07:23:49;3.60;;;2.10;;
55800;SDS011;41730;51.960;20.158;2023-07-22T07:26:20;3.30;;;1.90;;
55800;SDS011;41730;51.960;20.158;2023-07-22T07:28:50;3.10;;;1.60;;
55800;SDS011;41730;51.960;20.158;2023-07-22T07:31:20;4.30;;;1.80;;
55800;SDS011;41730;51.960;20.158;2023-07-22T07:33:49;5.10;;;1.70;;
55800;SDS011;41730;51.960;20.158;2023-07-22T07:36:19;2.90;;;1.60;;
55800;SDS011;41730;51.960;20.158;2023-07-22T07:38:49;2.30;;;1.60;;
55800;SDS011;41730;51.960;20.158;2023-07-22T07:41:18;2.60;;;1.60;;
55800;SDS011;41730;51.960;20.158;2023-07-22T07:43:47;3.50;;;1.50;;
55800;SDS011;41730;51.960;20.158;2023-07-22T07:46:18;5.00;;;1.50;;
55800;SDS011;41730;51.960;20.158;2023-07-22T07:48:49;3.30;;;1.70;;
55800;SDS011;41730;51.960;20.158;2023-07-22T07:51:20;2.60;;;1.70;;
55800;SDS011;41730;51.960;20.158;2023-07-22T07:53:52;3.40;;;1.50;;
55800;SDS011;41730;51.960;20.158;2023-07-22T07:56:22;2.80;;;1.60;;
55800;SDS011;41730;51.960;20.158;2023-07-22T07:58:53;3.50;;;1.60;;
55800;SDS011;41730;51.960;20.158;2023-07-22T08:01:23;4.10;;;1.50;;
55800;SDS011;41730;51.960;20.158;2023-07-22T08:03:52;4.20;;;1.80;;
55800;SDS011;41730;51.960;20.158;2023-07-22T08:06:22;2.80;;;1.60;;
55800;SDS011;41730;51.960;20.158;2023-07-22T08:08:52;2.50;;;1.80;;
55800;SDS011;41730;51.960;20.158;2023-07-22T08:11:22;4.00;;;1.60;;
55800;SDS011;41730;51.960;20.158;2023-07-22T08:13:54;4.30;;;1.60;;
55800;SDS011;41730;51.960;20.158;2023-07-22T08:16:24;3.20;;;1.90;;
55800;SDS011;41730;51.960;20.158;2023-07-22T08:18:53;4.00;;;1.70;;
55800;SDS011;41730;51.960;20.158;2023-07-22T08:21:23;2.90;;;1.70;;
55800;SDS011;41730;51.960;20.158;2023-07-22T08:23:53;4.00;;;1.70;;
55800;SDS011;41730;51.960;20.158;2023-07-22T08:26:24;3.50;;;1.80;;
55800;SDS011;41730;51.960;20.158;2023-07-22T08:28:54;2.80;;;1.70;;
55800;SDS011;41730;51.960;20.158;2023-07-22T08:31:24;3.50;;;1.80;;
55800;SDS011;41730;51.960;20.158;2023-07-22T08:33:53;3.90;;;1.70;;
55800;SDS011;41730;51.960;20.158;2023-07-22T08:36:22;3.00;;;1.90;;
55800;SDS011;41730;51.960;20.158;2023-07-22T08:38:53;4.40;;;1.90;;
55800;SDS011;41730;51.960;20.158;2023-07-22T08:41:22;4.90;;;1.70;;
55800;SDS011;41730;51.960;20.158;2023-07-22T08:43:52;3.70;;;1.50;;
55800;SDS011;41730;51.960;20.158;2023-07-22T08:46:27;4.20;;;1.90;;
55800;SDS011;41730;51.960;20.158;2023-07-22T08:49:01;2.50;;;1.60;;
55800;SDS011;41730;51.960;20.158;2023-07-22T08:51:33;3.10;;;1.70;;
55800;SDS011;41730;51.960;20.158;2023-07-22T08:54:04;2.10;;;1.40;;
55800;SDS011;41730;51.960;20.158;2023-07-22T08:56:38;2.50;;;1.70;;
55800;SDS011;41730;51.960;20.158;2023-07-22T08:59:09;2.10;;;1.40;;
55800;SDS011;41730;51.960;20.158;2023-07-22T09:01:41;1.90;;;1.50;;
55800;SDS011;41730;51.960;20.158;2023-07-22T09:04:11;2.40;;;1.70;;
55800;SDS011;41730;51.960;20.158;2023-07-22T09:06:40;2.70;;;1.60;;
55800;SDS011;41730;51.960;20.158;2023-07-22T09:09:10;2.10;;;1.40;;
55800;SDS011;41730;51.960;20.158;2023-07-22T09:11:41;3.10;;;1.50;;
55800;SDS011;41730;51.960;20.158;2023-07-22T09:14:13;2.90;;;1.30;;
55800;SDS011;41730;51.960;20.158;2023-07-22T09:16:57;3.70;;;1.30;;
55800;SDS011;41730;51.960;20.158;2023-07-22T09:19:26;4.00;;;1.50;;
55800;SDS011;41730;51.960;20.158;2023-07-22T09:21:57;3.10;;;1.30;;
55800;SDS011;41730;51.960;20.158;2023-07-22T09:24:27;2.90;;;1.50;;
55800;SDS011;41730;51.960;20.158;2023-07-22T09:26:57;2.20;;;1.30;;
55800;SDS011;41730;51.960;20.158;2023-07-22T09:29:37;2.00;;;1.30;;
55800;SDS011;41730;51.960;20.158;2023-07-22T09:32:07;3.30;;;1.40;;
55800;SDS011;41730;51.960;20.158;2023-07-22T09:34:37;2.30;;;1.20;;
55800;SDS011;41730;51.960;20.158;2023-07-22T09:37:21;1.60;;;1.20;;
55800;SDS011;41730;51.960;20.158;2023-07-22T09:40:04;3.30;;;1.50;;
55800;SDS011;41730;51.960;20.158;2023-07-22T09:42:47;2.10;;;1.30;;
55800;SDS011;41730;51.960;20.158;2023-07-22T09:45:18;5.20;;;1.40;;
55800;SDS011;41730;51.960;20.158;2023-07-22T09:47:50;4.90;;;1.60;;
55800;SDS011;41730;51.960;20.158;2023-07-22T09:50:21;2.50;;;1.40;;
55800;SDS011;41730;51.960;20.158;2023-07-22T09:52:52;3.30;;;1.40;;
55800;SDS011;41730;51.960;20.158;2023-07-22T09:55:22;2.60;;;1.40;;
55800;SDS011;41730;51.960;20.158;2023-07-22T09:57:53;5.10;;;1.60;;
55800;SDS011;41730;51.960;20.158;2023-07-22T10:00:24;3.40;;;1.40;;
55800;SDS011;41730;51.960;20.158;2023-07-22T10:02:56;2.30;;;1.40;;
55800;SDS011;41730;51.960;20.158;2023-07-22T10:05:27;2.50;;;1.20;;
55800;SDS011;41730;51.960;20.158;2023-07-22T10:07:57;2.80;;;1.40;;
55800;SDS011;41730;51.960;20.158;2023-07-22T10:10:30;1.80;;;1.30;;
55800;SDS011;41730;51.960;20.158;2023-07-22T10:13:00;3.20;;;1.70;;
55800;SDS011;41730;51.960;20.158;2023-07-22T10:15:31;3.00;;;1.60;;
55800;SDS011;41730;51.960;20.158;2023-07-22T10:18:02;2.90;;;1.50;;
55800;SDS011;41730;51.960;20.158;2023-07-22T10:20:32;2.20;;;1.50;;
55800;SDS011;41730;51.960;20.158;2023-07-22T10:23:04;2.80;;;1.50;;
55800;SDS011;41730;51.960;20.158;2023-07-22T10:25:35;3.10;;;1.90;;
55800;SDS011;41730;51.960;20.158;2023-07-22T10:28:05;2.10;;;1.30;;
55800;SDS011;41730;51.960;20.158;2023-07-22T10:30:36;3.40;;;1.50;;
55800;SDS011;41730;51.960;20.158;2023-07-22T10:33:05;3.40;;;1.60;;
55800;SDS011;41730;51.960;20.158;2023-07-22T10:35:42;2.90;;;1.60;;
55800;SDS011;41730;51.960;20.158;2023-07-22T10:38:28;2.80;;;1.60;;
55800;SDS011;41730;51.960;20.158;2023-07-22T10:40:58;2.40;;;1.50;;
55800;SDS011;41730;51.960;20.158;2023-07-22T10:43:29;2.50;;;1.80;;
55800;SDS011;41730;51.960;20.158;2023-07-22T10:46:07;2.30;;;1.60;;
55800;SDS011;41730;51.960;20.158;2023-07-22T10:48:43;2.40;;;1.40;;
55800;SDS011;41730;51.960;20.158;2023-07-22T10:51:15;4.10;;;1.80;;
55800;SDS011;41730;51.960;20.158;2023-07-22T10:53:50;3.30;;;1.80;;
55800;SDS011;41730;51.960;20.158;2023-07-22T10:56:19;3.30;;;1.50;;
55800;SDS011;41730;51.960;20.158;2023-07-22T10:58:56;3.20;;;1.70;;
55800;SDS011;41730;51.960;20.158;2023-07-22T11:01:34;3.00;;;1.30;;
55800;SDS011;41730;51.960;20.158;2023-07-22T11:04:17;2.80;;;1.40;;
55800;SDS011;41730;51.960;20.158;2023-07-22T11:09:40;2.40;;;1.80;;
55800;SDS011;41730;51.960;20.158;2023-07-22T11:12:13;3.80;;;2.60;;
55800;SDS011;41730;51.960;20.158;2023-07-22T11:14:49;2.40;;;1.60;;
55800;SDS011;41730;51.960;20.158;2023-07-22T11:17:27;3.20;;;1.60;;
55800;SDS011;41730;51.960;20.158;2023-07-22T11:19:59;2.80;;;1.50;;
55800;SDS011;41730;51.960;20.158;2023-07-22T11:22:30;2.20;;;1.30;;
55800;SDS011;41730;51.960;20.158;2023-07-22T11:24:59;2.10;;;1.50;;
55800;SDS011;41730;51.960;20.158;2023-07-22T11:27:32;3.90;;;1.70;;
55800;SDS011;41730;51.960;20.158;2023-07-22T11:30:03;2.60;;;1.60;;
55800;SDS011;41730;51.960;20.158;2023-07-22T11:32:34;2.30;;;1.50;;
55800;SDS011;41730;51.960;20.158;2023-07-22T11:35:09;4.20;;;1.40;;
55800;SDS011;41730;51.960;20.158;2023-07-22T11:37:38;3.00;;;1.60;;
55800;SDS011;41730;51.960;20.158;2023-07-22T11:40:10;2.90;;;1.20;;
55800;SDS011;41730;51.960;20.158;2023-07-22T11:42:41;3.10;;;1.50;;
55800;SDS011;41730;51.960;20.158;2023-07-22T11:45:12;3.10;;;1.50;;
55800;SDS011;41730;51.960;20.158;2023-07-22T11:47:42;1.90;;;1.30;;
55800;SDS011;41730;51.960;20.158;2023-07-22T11:50:12;2.80;;;1.60;;
55800;SDS011;41730;51.960;20.158;2023-07-22T11:52:42;1.80;;;1.40;;
55800;SDS011;41730;51.960;20.158;2023-07-22T11:55:25;3.10;;;1.30;;
55800;SDS011;41730;51.960;20.158;2023-07-22T11:58:06;2.80;;;1.50;;
55800;SDS011;41730;51.960;20.158;2023-07-22T12:00:42;2.50;;;1.30;;
55800;SDS011;41730;51.960;20.158;2023-07-22T12:03:31;3.10;;;1.50;;
55800;SDS011;41730;51.960;20.158;2023-07-22T12:06:02;2.30;;;1.30;;
55800;SDS011;41730;51.960;20.158;2023-07-22T12:08:31;3.70;;;1.40;;
55800;SDS011;41730;51.960;20.158;2023-07-22T12:11:01;2.80;;;1.50;;
55800;SDS011;41730;51.960;20.158;2023-07-22T12:13:36;2.30;;;1.40;;
55800;SDS011;41730;51.960;20.158;2023-07-22T12:16:05;7.70;;;2.80;;
55800;SDS011;41730;51.960;20.158;2023-07-22T12:18:44;3.10;;;1.80;;
55800;SDS011;41730;51.960;20.158;2023-07-22T12:21:15;5.60;;;1.80;;
55800;SDS011;41730;51.960;20.158;2023-07-22T12:23:46;3.50;;;1.70;;
55800;SDS011;41730;51.960;20.158;2023-07-22T12:26:22;2.30;;;1.60;;
55800;SDS011;41730;51.960;20.158;2023-07-22T12:28:57;2.70;;;1.70;;
55800;SDS011;41730;51.960;20.158;2023-07-22T12:31:32;2.10;;;1.60;;
55800;SDS011;41730;51.960;20.158;2023-07-22T12:34:01;3.30;;;1.70;;
55800;SDS011;41730;51.960;20.158;2023-07-22T12:36:31;3.50;;;2.30;;
55800;SDS011;41730;51.960;20.158;2023-07-22T12:39:00;2.70;;;1.80;;
55800;SDS011;41730;51.960;20.158;2023-07-22T12:41:31;4.00;;;1.70;;
55800;SDS011;41730;51.960;20.158;2023-07-22T12:44:00;3.00;;;1.90;;
55800;SDS011;41730;51.960;20.158;2023-07-22T12:46:30;3.50;;;2.00;;
55800;SDS011;41730;51.960;20.158;2023-07-22T12:48:59;3.00;;;1.80;;
55800;SDS011;41730;51.960;20.158;2023-07-22T12:51:28;2.40;;;1.80;;
55800;SDS011;41730;51.960;20.158;2023-07-22T12:53:58;3.60;;;1.70;;
55800;SDS011;41730;51.960;20.158;2023-07-22T12:56:27;2.90;;;1.90;;
55800;SDS011;41730;51.960;20.158;2023-07-22T12:58:57;3.40;;;1.80;;
55800;SDS011;41730;51.960;20.158;2023-07-22T13:01:29;2.70;;;1.70;;
55800;SDS011;41730;51.960;20.158;2023-07-22T13:03:59;4.20;;;1.70;;
55800;SDS011;41730;51.960;20.158;2023-07-22T13:06:32;2.70;;;1.80;;
55800;SDS011;41730;51.960;20.158;2023-07-22T13:09:04;4.20;;;2.00;;
55800;SDS011;41730;51.960;20.158;2023-07-22T13:11:33;4.70;;;2.00;;
55800;SDS011;41730;51.960;20.158;2023-07-22T13:14:02;3.80;;;2.00;;
55800;SDS011;41730;51.960;20.158;2023-07-22T13:16:32;2.40;;;1.60;;
55800;SDS011;41730;51.960;20.158;2023-07-22T13:19:01;4.10;;;1.90;;
55800;SDS011;41730;51.960;20.158;2023-07-22T13:21:30;2.30;;;1.60;;
55800;SDS011;41730;51.960;20.158;2023-07-22T13:23:59;3.30;;;1.70;;
55800;SDS011;41730;51.960;20.158;2023-07-22T13:26:30;2.50;;;1.70;;
55800;SDS011;41730;51.960;20.158;2023-07-22T13:28:59;2.30;;;1.70;;
55800;SDS011;41730;51.960;20.158;2023-07-22T13:31:28;3.10;;;1.50;;
55800;SDS011;41730;51.960;20.158;2023-07-22T13:33:57;2.60;;;1.50;;
55800;SDS011;41730;51.960;20.158;2023-07-22T13:36:27;3.60;;;1.70;;
55800;SDS011;41730;51.960;20.158;2023-07-22T13:38:56;2.30;;;1.40;;
55800;SDS011;41730;51.960;20.158;2023-07-22T13:41:25;3.20;;;1.60;;
55800;SDS011;41730;51.960;20.158;2023-07-22T13:43:55;2.90;;;1.60;;
55800;SDS011;41730;51.960;20.158;2023-07-22T13:46:25;2.50;;;1.50;;
55800;SDS011;41730;51.960;20.158;2023-07-22T13:48:56;4.10;;;1.60;;
55800;SDS011;41730;51.960;20.158;2023-07-22T13:51:25;2.60;;;1.60;;
55800;SDS011;41730;51.960;20.158;2023-07-22T13:53:56;2.80;;;1.50;;
55800;SDS011;41730;51.960;20.158;2023-07-22T13:56:26;2.30;;;1.50;;
55800;SDS011;41730;51.960;20.158;2023-07-22T13:58:55;3.50;;;1.50;;
55800;SDS011;41730;51.960;20.158;2023-07-22T14:01:26;3.80;;;1.50;;
55800;SDS011;41730;51.960;20.158;2023-07-22T14:04:04;3.30;;;1.60;;
55800;SDS011;41730;51.960;20.158;2023-07-22T14:06:45;4.50;;;1.90;;
55800;SDS011;41730;51.960;20.158;2023-07-22T14:09:20;3.50;;;2.00;;
55800;SDS011;41730;51.960;20.158;2023-07-22T14:11:56;4.40;;;1.60;;
55800;SDS011;41730;51.960;20.158;2023-07-22T14:14:26;4.20;;;1.50;;
55800;SDS011;41730;51.960;20.158;2023-07-22T14:16:59;4.10;;;1.70;;
55800;SDS011;41730;51.960;20.158;2023-07-22T14:19:34;3.70;;;1.70;;
55800;SDS011;41730;51.960;20.158;2023-07-22T14:22:07;2.40;;;1.60;;
55800;SDS011;41730;51.960;20.158;2023-07-22T14:24:40;3.50;;;1.50;;
55800;SDS011;41730;51.960;20.158;2023-07-22T14:27:11;6.20;;;1.50;;
55800;SDS011;41730;51.960;20.158;2023-07-22T14:29:41;2.50;;;1.60;;
55800;SDS011;41730;51.960;20.158;2023-07-22T14:32:11;4.00;;;1.80;;
55800;SDS011;41730;51.960;20.158;2023-07-22T14:34:43;3.70;;;1.70;;
55800;SDS011;41730;51.960;20.158;2023-07-22T14:37:17;2.60;;;1.60;;
55800;SDS011;41730;51.960;20.158;2023-07-22T14:39:53;3.10;;;1.80;;
55800;SDS011;41730;51.960;20.158;2023-07-22T14:42:25;5.10;;;1.60;;
55800;SDS011;41730;51.960;20.158;2023-07-22T14:44:56;2.60;;;1.60;;
55800;SDS011;41730;51.960;20.158;2023-07-22T14:47:27;3.00;;;1.70;;
55800;SDS011;41730;51.960;20.158;2023-07-22T14:49:58;4.00;;;1.80;;
55800;SDS011;41730;51.960;20.158;2023-07-22T14:52:29;4.60;;;1.60;;
55800;SDS011;41730;51.960;20.158;2023-07-22T14:55:01;4.70;;;1.80;;
55800;SDS011;41730;51.960;20.158;2023-07-22T14:57:40;3.20;;;1.50;;
55800;SDS011;41730;51.960;20.158;2023-07-22T15:00:13;3.60;;;1.50;;
55800;SDS011;41730;51.960;20.158;2023-07-22T15:02:47;2.90;;;1.70;;
55800;SDS011;41730;51.960;20.158;2023-07-22T15:05:25;3.30;;;1.70;;
55800;SDS011;41730;51.960;20.158;2023-07-22T15:07:57;2.90;;;1.60;;